sensor_id;sensor_type;location;lat;lon;timestamp;temperature;humidity
612;DHT22;293;53.888;11.464;2023-04-04T00:01:16;0.50;99.90
612;DHT22;293;53.888;11.464;2023-04-04T00:03:43;0.40;99.90
612;DHT22;293;53.888;11.464;2023-04-04T00:06:10;0.30;99.90
612;DHT22;293;53.888;11.464;2023-04-04T00:08:36;0.20;99.90
612;DHT22;293;53.888;11.464;2023-04-04T00:11:05;0.20;99.90
612;DHT22;293;53.888;11.464;2023-04-04T00:13:32;0.20;99.90
612;DHT22;293;53.888;11.464;2023-04-04T00:15:58;0.20;99.90
612;DHT22;293;53.888;11.464;2023-04-04T00:18:25;0.20;99.90
612;DHT22;293;53.888;11.464;2023-04-04T00:20:52;0.20;99.90
612;DHT22;293;53.888;11.464;2023-04-04T00:23:19;0.30;99.90
612;DHT22;293;53.888;11.464;2023-04-04T00:25:48;0.30;99.90
612;DHT22;293;53.888;11.464;2023-04-04T00:28:17;0.30;99.90
612;DHT22;293;53.888;11.464;2023-04-04T00:30:44;0.30;99.90
612;DHT22;293;53.888;11.464;2023-04-04T00:33:12;0.30;99.90
612;DHT22;293;53.888;11.464;2023-04-04T00:35:38;0.30;99.90
612;DHT22;293;53.888;11.464;2023-04-04T00:38:05;0.30;99.90
612;DHT22;293;53.888;11.464;2023-04-04T00:40:33;0.20;99.90
612;DHT22;293;53.888;11.464;2023-04-04T00:43:00;0.20;99.90
612;DHT22;293;53.888;11.464;2023-04-04T00:45:28;0.20;99.90
612;DHT22;293;53.888;11.464;2023-04-04T00:47:56;0.20;99.90
612;DHT22;293;53.888;11.464;2023-04-04T00:50:24;0.20;99.90
612;DHT22;293;53.888;11.464;2023-04-04T00:52:51;0.20;99.90
612;DHT22;293;53.888;11.464;2023-04-04T00:55:18;0.20;99.90
612;DHT22;293;53.888;11.464;2023-04-04T00:57:45;0.20;99.90
612;DHT22;293;53.888;11.464;2023-04-04T01:00:13;0.30;99.90
612;DHT22;293;53.888;11.464;2023-04-04T01:02:42;0.30;99.90
612;DHT22;293;53.888;11.464;2023-04-04T01:05:09;0.30;99.90
612;DHT22;293;53.888;11.464;2023-04-04T01:07:37;0.30;99.90
612;DHT22;293;53.888;11.464;2023-04-04T01:10:05;0.30;99.90
612;DHT22;293;53.888;11.464;2023-04-04T01:12:33;0.40;99.90
612;DHT22;293;53.888;11.464;2023-04-04T01:15:00;0.40;99.90
612;DHT22;293;53.888;11.464;2023-04-04T01:17:28;0.40;99.90
612;DHT22;293;53.888;11.464;2023-04-04T01:20:02;0.40;99.90
612;DHT22;293;53.888;11.464;2023-04-04T01:22:31;0.40;99.90
612;DHT22;293;53.888;11.464;2023-04-04T01:24:59;0.30;99.90
612;DHT22;293;53.888;11.464;2023-04-04T01:27:28;0.40;99.90
612;DHT22;293;53.888;11.464;2023-04-04T01:29:56;0.40;99.90
612;DHT22;293;53.888;11.464;2023-04-04T01:32:28;0.40;99.90
612;DHT22;293;53.888;11.464;2023-04-04T01:35:02;0.40;99.90
612;DHT22;293;53.888;11.464;2023-04-04T01:37:35;0.40;99.90
612;DHT22;293;53.888;11.464;2023-04-04T01:40:07;0.40;99.90
612;DHT22;293;53.888;11.464;2023-04-04T01:42:39;0.40;99.90
612;DHT22;293;53.888;11.464;2023-04-04T01:45:07;0.40;99.90
612;DHT22;293;53.888;11.464;2023-04-04T01:47:38;0.40;99.90
612;DHT22;293;53.888;11.464;2023-04-04T01:50:07;0.40;99.90
612;DHT22;293;53.888;11.464;2023-04-04T01:52:34;0.40;99.90
612;DHT22;293;53.888;11.464;2023-04-04T01:55:01;0.30;99.90
612;DHT22;293;53.888;11.464;2023-04-04T01:57:28;0.30;99.90
612;DHT22;293;53.888;11.464;2023-04-04T01:59:56;0.30;99.90
612;DHT22;293;53.888;11.464;2023-04-04T02:02:23;0.30;99.90
612;DHT22;293;53.888;11.464;2023-04-04T02:04:50;0.30;99.90
612;DHT22;293;53.888;11.464;2023-04-04T02:07:16;0.30;99.90
612;DHT22;293;53.888;11.464;2023-04-04T02:09:43;0.30;99.90
612;DHT22;293;53.888;11.464;2023-04-04T02:12:10;0.20;99.90
612;DHT22;293;53.888;11.464;2023-04-04T02:14:37;0.20;99.90
612;DHT22;293;53.888;11.464;2023-04-04T02:17:06;0.20;99.90
612;DHT22;293;53.888;11.464;2023-04-04T02:19:33;0.20;99.90
612;DHT22;293;53.888;11.464;2023-04-04T02:22:00;0.20;99.90
612;DHT22;293;53.888;11.464;2023-04-04T02:24:27;0.10;99.90
612;DHT22;293;53.888;11.464;2023-04-04T02:26:53;0.10;99.90
612;DHT22;293;53.888;11.464;2023-04-04T02:29:20;0.10;99.90
612;DHT22;293;53.888;11.464;2023-04-04T02:31:47;0.10;99.90
612;DHT22;293;53.888;11.464;2023-04-04T02:34:16;0.10;99.90
612;DHT22;293;53.888;11.464;2023-04-04T02:36:42;0.10;99.90
612;DHT22;293;53.888;11.464;2023-04-04T02:39:10;0.00;99.90
612;DHT22;293;53.888;11.464;2023-04-04T02:41:37;0.10;99.90
612;DHT22;293;53.888;11.464;2023-04-04T02:44:03;0.00;99.90
612;DHT22;293;53.888;11.464;2023-04-04T02:46:30;0.10;99.90
612;DHT22;293;53.888;11.464;2023-04-04T02:48:57;0.10;99.90
612;DHT22;293;53.888;11.464;2023-04-04T02:51:27;0.10;99.90
612;DHT22;293;53.888;11.464;2023-04-04T02:53:54;0.10;99.90
612;DHT22;293;53.888;11.464;2023-04-04T02:56:21;0.10;99.90
612;DHT22;293;53.888;11.464;2023-04-04T02:58:48;0.10;99.90
612;DHT22;293;53.888;11.464;2023-04-04T03:01:15;0.00;99.90
612;DHT22;293;53.888;11.464;2023-04-04T03:03:42;0.00;99.90
612;DHT22;293;53.888;11.464;2023-04-04T03:06:09;-0.10;99.90
612;DHT22;293;53.888;11.464;2023-04-04T03:08:37;0.00;99.90
612;DHT22;293;53.888;11.464;2023-04-04T03:11:04;0.00;99.90
612;DHT22;293;53.888;11.464;2023-04-04T03:13:31;0.00;99.90
612;DHT22;293;53.888;11.464;2023-04-04T03:15:59;0.00;99.90
612;DHT22;293;53.888;11.464;2023-04-04T03:18:27;0.10;99.90
612;DHT22;293;53.888;11.464;2023-04-04T03:20:54;0.10;99.90
612;DHT22;293;53.888;11.464;2023-04-04T03:23:21;-0.10;99.90
612;DHT22;293;53.888;11.464;2023-04-04T03:25:49;0.00;99.90
612;DHT22;293;53.888;11.464;2023-04-04T03:28:16;-0.10;99.90
612;DHT22;293;53.888;11.464;2023-04-04T03:30:43;-0.10;99.90
612;DHT22;293;53.888;11.464;2023-04-04T03:33:10;0.00;99.90
612;DHT22;293;53.888;11.464;2023-04-04T03:35:37;0.00;99.90
612;DHT22;293;53.888;11.464;2023-04-04T03:38:04;0.10;99.90
612;DHT22;293;53.888;11.464;2023-04-04T03:40:31;0.10;99.90
612;DHT22;293;53.888;11.464;2023-04-04T03:42:59;0.10;99.90
612;DHT22;293;53.888;11.464;2023-04-04T03:45:27;0.10;99.90
612;DHT22;293;53.888;11.464;2023-04-04T03:47:54;0.10;99.90
612;DHT22;293;53.888;11.464;2023-04-04T03:50:21;0.10;99.90
612;DHT22;293;53.888;11.464;2023-04-04T03:52:48;0.10;99.90
612;DHT22;293;53.888;11.464;2023-04-04T03:55:15;0.10;99.90
612;DHT22;293;53.888;11.464;2023-04-04T03:57:42;0.10;99.90
612;DHT22;293;53.888;11.464;2023-04-04T04:00:11;0.10;99.90
612;DHT22;293;53.888;11.464;2023-04-04T04:02:39;0.10;99.90
612;DHT22;293;53.888;11.464;2023-04-04T04:05:06;0.10;99.90
612;DHT22;293;53.888;11.464;2023-04-04T04:07:33;0.00;99.90
612;DHT22;293;53.888;11.464;2023-04-04T04:10:00;0.00;99.90
612;DHT22;293;53.888;11.464;2023-04-04T04:12:27;0.00;99.90
612;DHT22;293;53.888;11.464;2023-04-04T04:14:54;0.00;99.90
612;DHT22;293;53.888;11.464;2023-04-04T04:17:22;0.10;99.90
612;DHT22;293;53.888;11.464;2023-04-04T04:19:49;0.10;99.90
612;DHT22;293;53.888;11.464;2023-04-04T04:22:16;0.10;99.90
612;DHT22;293;53.888;11.464;2023-04-04T04:24:43;0.00;99.90
612;DHT22;293;53.888;11.464;2023-04-04T04:27:10;0.10;99.90
612;DHT22;293;53.888;11.464;2023-04-04T04:29:37;0.10;99.90
612;DHT22;293;53.888;11.464;2023-04-04T04:32:04;0.10;99.90
612;DHT22;293;53.888;11.464;2023-04-04T04:34:32;0.20;99.90
612;DHT22;293;53.888;11.464;2023-04-04T04:36:59;0.20;99.90
612;DHT22;293;53.888;11.464;2023-04-04T04:39:26;0.20;99.90
612;DHT22;293;53.888;11.464;2023-04-04T04:41:53;0.20;99.90
612;DHT22;293;53.888;11.464;2023-04-04T04:44:19;0.30;99.90
612;DHT22;293;53.888;11.464;2023-04-04T04:46:46;0.30;99.90
612;DHT22;293;53.888;11.464;2023-04-04T04:49:13;0.30;99.90
612;DHT22;293;53.888;11.464;2023-04-04T04:51:41;0.30;99.90
612;DHT22;293;53.888;11.464;2023-04-04T04:54:08;0.30;99.90
612;DHT22;293;53.888;11.464;2023-04-04T04:56:35;0.30;99.90
612;DHT22;293;53.888;11.464;2023-04-04T04:59:02;0.40;99.90
612;DHT22;293;53.888;11.464;2023-04-04T05:01:31;0.40;99.90
612;DHT22;293;53.888;11.464;2023-04-04T05:03:58;0.40;99.90
612;DHT22;293;53.888;11.464;2023-04-04T05:06:25;0.50;99.90
612;DHT22;293;53.888;11.464;2023-04-04T05:08:54;0.60;99.90
612;DHT22;293;53.888;11.464;2023-04-04T05:11:20;0.80;99.90
612;DHT22;293;53.888;11.464;2023-04-04T05:13:47;1.10;99.90
612;DHT22;293;53.888;11.464;2023-04-04T05:16:14;1.50;99.90
612;DHT22;293;53.888;11.464;2023-04-04T05:18:42;2.00;99.90
612;DHT22;293;53.888;11.464;2023-04-04T05:21:09;2.80;99.90
612;DHT22;293;53.888;11.464;2023-04-04T05:23:36;3.90;99.90
612;DHT22;293;53.888;11.464;2023-04-04T05:26:04;5.00;99.90
612;DHT22;293;53.888;11.464;2023-04-04T05:28:31;6.20;99.90
612;DHT22;293;53.888;11.464;2023-04-04T05:30:58;7.30;99.90
612;DHT22;293;53.888;11.464;2023-04-04T05:33:25;8.30;99.90
612;DHT22;293;53.888;11.464;2023-04-04T05:35:52;8.90;97.60
612;DHT22;293;53.888;11.464;2023-04-04T05:38:18;9.50;95.60
612;DHT22;293;53.888;11.464;2023-04-04T05:40:45;10.00;93.80
612;DHT22;293;53.888;11.464;2023-04-04T05:43:14;10.40;92.40
612;DHT22;293;53.888;11.464;2023-04-04T05:45:40;10.70;91.40
612;DHT22;293;53.888;11.464;2023-04-04T05:48:07;11.30;91.00
612;DHT22;293;53.888;11.464;2023-04-04T05:50:34;12.20;90.10
612;DHT22;293;53.888;11.464;2023-04-04T05:53:01;13.30;87.20
612;DHT22;293;53.888;11.464;2023-04-04T05:55:29;14.40;82.50
612;DHT22;293;53.888;11.464;2023-04-04T05:57:56;15.50;78.90
612;DHT22;293;53.888;11.464;2023-04-04T06:00:24;16.30;75.30
612;DHT22;293;53.888;11.464;2023-04-04T06:02:51;16.90;70.70
612;DHT22;293;53.888;11.464;2023-04-04T06:05:18;17.30;67.70
612;DHT22;293;53.888;11.464;2023-04-04T06:07:45;17.40;66.70
612;DHT22;293;53.888;11.464;2023-04-04T06:10:12;17.60;64.90
612;DHT22;293;53.888;11.464;2023-04-04T06:12:39;17.70;64.20
612;DHT22;293;53.888;11.464;2023-04-04T06:15:07;17.80;63.50
612;DHT22;293;53.888;11.464;2023-04-04T06:17:35;17.40;62.70
612;DHT22;293;53.888;11.464;2023-04-04T06:20:02;16.10;63.30
612;DHT22;293;53.888;11.464;2023-04-04T06:22:30;14.80;64.90
612;DHT22;293;53.888;11.464;2023-04-04T06:24:57;13.40;66.40
612;DHT22;293;53.888;11.464;2023-04-04T06:27:23;12.10;68.50
612;DHT22;293;53.888;11.464;2023-04-04T06:29:50;10.90;71.10
612;DHT22;293;53.888;11.464;2023-04-04T06:32:18;10.00;73.90
612;DHT22;293;53.888;11.464;2023-04-04T06:34:47;9.10;77.40
612;DHT22;293;53.888;11.464;2023-04-04T06:37:14;8.40;79.90
612;DHT22;293;53.888;11.464;2023-04-04T06:39:41;7.80;82.50
612;DHT22;293;53.888;11.464;2023-04-04T06:42:08;7.40;85.70
612;DHT22;293;53.888;11.464;2023-04-04T06:44:36;7.00;87.30
612;DHT22;293;53.888;11.464;2023-04-04T06:47:03;6.50;89.00
612;DHT22;293;53.888;11.464;2023-04-04T06:49:30;6.10;90.20
612;DHT22;293;53.888;11.464;2023-04-04T06:51:59;5.70;91.70
612;DHT22;293;53.888;11.464;2023-04-04T06:54:26;5.60;92.60
612;DHT22;293;53.888;11.464;2023-04-04T06:56:53;5.50;93.30
612;DHT22;293;53.888;11.464;2023-04-04T06:59:20;5.30;93.90
612;DHT22;293;53.888;11.464;2023-04-04T07:01:47;5.30;94.90
612;DHT22;293;53.888;11.464;2023-04-04T07:04:16;5.10;95.20
612;DHT22;293;53.888;11.464;2023-04-04T07:06:43;4.80;95.70
612;DHT22;293;53.888;11.464;2023-04-04T07:09:12;4.60;96.20
612;DHT22;293;53.888;11.464;2023-04-04T07:11:39;4.50;96.60
612;DHT22;293;53.888;11.464;2023-04-04T07:14:05;4.50;97.10
612;DHT22;293;53.888;11.464;2023-04-04T07:16:32;4.50;97.30
612;DHT22;293;53.888;11.464;2023-04-04T07:19:00;4.50;97.80
612;DHT22;293;53.888;11.464;2023-04-04T07:21:27;4.50;98.00
612;DHT22;293;53.888;11.464;2023-04-04T07:23:54;4.50;98.20
612;DHT22;293;53.888;11.464;2023-04-04T07:26:23;4.60;98.60
612;DHT22;293;53.888;11.464;2023-04-04T07:28:50;4.60;98.70
612;DHT22;293;53.888;11.464;2023-04-04T07:31:17;4.60;98.80
612;DHT22;293;53.888;11.464;2023-04-04T07:33:44;4.60;98.70
612;DHT22;293;53.888;11.464;2023-04-04T07:36:11;4.60;99.20
612;DHT22;293;53.888;11.464;2023-04-04T07:38:38;4.60;98.70
612;DHT22;293;53.888;11.464;2023-04-04T07:41:04;4.70;98.60
612;DHT22;293;53.888;11.464;2023-04-04T07:43:33;4.80;98.40
612;DHT22;293;53.888;11.464;2023-04-04T07:46:00;4.80;98.20
612;DHT22;293;53.888;11.464;2023-04-04T07:48:27;5.00;98.40
612;DHT22;293;53.888;11.464;2023-04-04T07:50:54;5.10;98.20
612;DHT22;293;53.888;11.464;2023-04-04T07:53:20;5.20;97.90
612;DHT22;293;53.888;11.464;2023-04-04T07:55:48;5.20;97.80
612;DHT22;293;53.888;11.464;2023-04-04T07:58:14;5.30;97.80
612;DHT22;293;53.888;11.464;2023-04-04T08:00:43;5.40;98.00
612;DHT22;293;53.888;11.464;2023-04-04T08:03:10;5.50;98.00
612;DHT22;293;53.888;11.464;2023-04-04T08:05:36;5.50;98.00
612;DHT22;293;53.888;11.464;2023-04-04T08:08:03;5.50;98.10
612;DHT22;293;53.888;11.464;2023-04-04T08:10:30;5.60;98.10
612;DHT22;293;53.888;11.464;2023-04-04T08:12:57;5.50;98.30
612;DHT22;293;53.888;11.464;2023-04-04T08:15:25;5.60;98.60
612;DHT22;293;53.888;11.464;2023-04-04T08:17:53;5.70;98.60
612;DHT22;293;53.888;11.464;2023-04-04T08:20:20;5.90;98.10
612;DHT22;293;53.888;11.464;2023-04-04T08:22:47;6.10;98.10
612;DHT22;293;53.888;11.464;2023-04-04T08:25:15;6.20;97.70
612;DHT22;293;53.888;11.464;2023-04-04T08:27:43;6.50;97.70
612;DHT22;293;53.888;11.464;2023-04-04T08:30:11;6.70;97.50
612;DHT22;293;53.888;11.464;2023-04-04T08:32:38;6.90;97.10
612;DHT22;293;53.888;11.464;2023-04-04T08:35:07;6.90;96.70
612;DHT22;293;53.888;11.464;2023-04-04T08:37:34;6.90;96.60
612;DHT22;293;53.888;11.464;2023-04-04T08:40:01;6.90;96.70
612;DHT22;293;53.888;11.464;2023-04-04T08:42:29;7.30;96.80
612;DHT22;293;53.888;11.464;2023-04-04T08:45:00;7.10;96.60
612;DHT22;293;53.888;11.464;2023-04-04T08:47:30;7.30;96.40
612;DHT22;293;53.888;11.464;2023-04-04T08:49:59;7.40;96.50
612;DHT22;293;53.888;11.464;2023-04-04T08:52:27;7.40;96.10
612;DHT22;293;53.888;11.464;2023-04-04T08:54:56;7.40;95.80
612;DHT22;293;53.888;11.464;2023-04-04T08:57:23;7.60;95.70
612;DHT22;293;53.888;11.464;2023-04-04T08:59:50;7.50;95.00
612;DHT22;293;53.888;11.464;2023-04-04T09:02:23;7.40;94.70
612;DHT22;293;53.888;11.464;2023-04-04T09:04:52;7.40;94.20
612;DHT22;293;53.888;11.464;2023-04-04T09:07:20;7.50;94.00
612;DHT22;293;53.888;11.464;2023-04-04T09:09:50;7.40;94.80
612;DHT22;293;53.888;11.464;2023-04-04T09:12:18;7.60;94.60
612;DHT22;293;53.888;11.464;2023-04-04T09:14:47;7.60;94.00
612;DHT22;293;53.888;11.464;2023-04-04T09:17:16;7.60;93.80
612;DHT22;293;53.888;11.464;2023-04-04T09:19:43;7.60;92.80
612;DHT22;293;53.888;11.464;2023-04-04T09:22:10;7.50;92.10
612;DHT22;293;53.888;11.464;2023-04-04T09:24:37;7.50;92.50
612;DHT22;293;53.888;11.464;2023-04-04T09:27:06;7.60;92.60
612;DHT22;293;53.888;11.464;2023-04-04T09:29:36;7.60;92.10
612;DHT22;293;53.888;11.464;2023-04-04T09:32:03;7.50;91.90
612;DHT22;293;53.888;11.464;2023-04-04T09:34:31;7.60;91.90
612;DHT22;293;53.888;11.464;2023-04-04T09:36:58;7.70;92.00
612;DHT22;293;53.888;11.464;2023-04-04T09:39:25;7.80;91.90
612;DHT22;293;53.888;11.464;2023-04-04T09:41:52;7.90;91.30
612;DHT22;293;53.888;11.464;2023-04-04T09:44:23;8.00;91.20
612;DHT22;293;53.888;11.464;2023-04-04T09:46:50;8.10;91.40
612;DHT22;293;53.888;11.464;2023-04-04T09:49:18;8.00;91.90
612;DHT22;293;53.888;11.464;2023-04-04T09:51:47;8.10;91.10
612;DHT22;293;53.888;11.464;2023-04-04T09:54:20;8.20;91.00
612;DHT22;293;53.888;11.464;2023-04-04T09:56:47;8.10;90.70
612;DHT22;293;53.888;11.464;2023-04-04T09:59:15;8.00;90.40
612;DHT22;293;53.888;11.464;2023-04-04T10:01:44;7.90;90.70
612;DHT22;293;53.888;11.464;2023-04-04T10:04:12;7.80;90.80
612;DHT22;293;53.888;11.464;2023-04-04T10:06:42;8.00;90.70
612;DHT22;293;53.888;11.464;2023-04-04T10:09:10;8.00;90.30
612;DHT22;293;53.888;11.464;2023-04-04T10:11:38;8.00;90.30
612;DHT22;293;53.888;11.464;2023-04-04T10:14:05;8.10;90.40
612;DHT22;293;53.888;11.464;2023-04-04T10:16:33;8.20;90.00
612;DHT22;293;53.888;11.464;2023-04-04T10:19:03;8.30;88.00
612;DHT22;293;53.888;11.464;2023-04-04T10:21:32;8.40;87.70
612;DHT22;293;53.888;11.464;2023-04-04T10:24:00;8.50;85.00
612;DHT22;293;53.888;11.464;2023-04-04T10:26:33;8.60;84.20
612;DHT22;293;53.888;11.464;2023-04-04T10:29:01;8.70;83.80
612;DHT22;293;53.888;11.464;2023-04-04T10:31:32;8.70;75.40
612;DHT22;293;53.888;11.464;2023-04-04T10:34:09;8.70;72.80
612;DHT22;293;53.888;11.464;2023-04-04T10:36:43;8.40;70.60
612;DHT22;293;53.888;11.464;2023-04-04T10:39:13;8.30;69.70
612;DHT22;293;53.888;11.464;2023-04-04T10:41:41;8.20;64.20
612;DHT22;293;53.888;11.464;2023-04-04T10:44:14;8.10;67.90
612;DHT22;293;53.888;11.464;2023-04-04T10:46:45;8.10;67.50
612;DHT22;293;53.888;11.464;2023-04-04T10:49:14;8.00;68.10
612;DHT22;293;53.888;11.464;2023-04-04T10:51:41;8.00;67.40
612;DHT22;293;53.888;11.464;2023-04-04T10:54:09;8.10;69.20
612;DHT22;293;53.888;11.464;2023-04-04T10:56:36;8.20;70.40
612;DHT22;293;53.888;11.464;2023-04-04T10:59:14;8.20;71.30
612;DHT22;293;53.888;11.464;2023-04-04T11:01:55;8.10;72.90
612;DHT22;293;53.888;11.464;2023-04-04T11:04:31;8.20;71.90
612;DHT22;293;53.888;11.464;2023-04-04T11:07:12;8.20;71.30
612;DHT22;293;53.888;11.464;2023-04-04T11:09:52;8.20;72.40
612;DHT22;293;53.888;11.464;2023-04-04T11:12:21;8.40;74.00
612;DHT22;293;53.888;11.464;2023-04-04T11:14:56;8.40;74.70
612;DHT22;293;53.888;11.464;2023-04-04T11:17:42;8.40;75.40
612;DHT22;293;53.888;11.464;2023-04-04T11:20:14;8.10;76.00
612;DHT22;293;53.888;11.464;2023-04-04T11:22:42;7.90;77.20
612;DHT22;293;53.888;11.464;2023-04-04T11:25:28;7.80;77.90
612;DHT22;293;53.888;11.464;2023-04-04T11:27:56;7.80;79.10
612;DHT22;293;53.888;11.464;2023-04-04T11:30:24;7.60;79.30
612;DHT22;293;53.888;11.464;2023-04-04T11:32:56;7.50;81.00
612;DHT22;293;53.888;11.464;2023-04-04T11:35:25;7.50;82.90
612;DHT22;293;53.888;11.464;2023-04-04T11:37:59;7.30;82.40
612;DHT22;293;53.888;11.464;2023-04-04T11:40:37;7.30;83.00
612;DHT22;293;53.888;11.464;2023-04-04T11:43:09;7.30;82.70
612;DHT22;293;53.888;11.464;2023-04-04T11:45:37;7.30;83.80
612;DHT22;293;53.888;11.464;2023-04-04T11:48:09;7.30;83.50
612;DHT22;293;53.888;11.464;2023-04-04T11:50:40;7.30;84.10
612;DHT22;293;53.888;11.464;2023-04-04T11:53:08;7.30;83.30
612;DHT22;293;53.888;11.464;2023-04-04T11:55:38;7.40;84.40
612;DHT22;293;53.888;11.464;2023-04-04T11:58:08;7.50;83.40
612;DHT22;293;53.888;11.464;2023-04-04T12:00:36;7.60;82.30
612;DHT22;293;53.888;11.464;2023-04-04T12:03:04;7.50;81.60
612;DHT22;293;53.888;11.464;2023-04-04T12:05:33;7.40;82.00
612;DHT22;293;53.888;11.464;2023-04-04T12:08:02;7.30;83.00
612;DHT22;293;53.888;11.464;2023-04-04T12:10:32;7.30;83.00
612;DHT22;293;53.888;11.464;2023-04-04T12:13:00;7.20;83.30
612;DHT22;293;53.888;11.464;2023-04-04T12:15:28;7.10;83.70
612;DHT22;293;53.888;11.464;2023-04-04T12:17:57;7.20;84.80
612;DHT22;293;53.888;11.464;2023-04-04T12:20:25;7.20;84.60
612;DHT22;293;53.888;11.464;2023-04-04T12:22:52;7.20;84.60
612;DHT22;293;53.888;11.464;2023-04-04T12:25:21;7.10;85.00
612;DHT22;293;53.888;11.464;2023-04-04T12:27:50;7.10;85.50
612;DHT22;293;53.888;11.464;2023-04-04T12:30:18;7.30;85.50
612;DHT22;293;53.888;11.464;2023-04-04T12:32:46;7.50;85.00
612;DHT22;293;53.888;11.464;2023-04-04T12:35:14;7.70;85.10
612;DHT22;293;53.888;11.464;2023-04-04T12:37:56;7.90;83.80
612;DHT22;293;53.888;11.464;2023-04-04T12:40:28;8.10;82.80
612;DHT22;293;53.888;11.464;2023-04-04T12:42:58;8.10;82.40
612;DHT22;293;53.888;11.464;2023-04-04T12:45:26;8.10;81.50
612;DHT22;293;53.888;11.464;2023-04-04T12:47:55;8.20;81.70
612;DHT22;293;53.888;11.464;2023-04-04T12:50:26;8.10;81.50
612;DHT22;293;53.888;11.464;2023-04-04T12:52:53;8.10;81.30
612;DHT22;293;53.888;11.464;2023-04-04T12:55:22;8.00;80.70
612;DHT22;293;53.888;11.464;2023-04-04T12:57:50;7.90;80.30
612;DHT22;293;53.888;11.464;2023-04-04T13:00:20;7.80;80.70
612;DHT22;293;53.888;11.464;2023-04-04T13:02:50;7.70;82.60
612;DHT22;293;53.888;11.464;2023-04-04T13:05:18;7.50;81.30
612;DHT22;293;53.888;11.464;2023-04-04T13:07:46;7.50;81.20
612;DHT22;293;53.888;11.464;2023-04-04T13:10:14;7.60;81.30
612;DHT22;293;53.888;11.464;2023-04-04T13:12:56;7.60;81.20
612;DHT22;293;53.888;11.464;2023-04-04T13:15:48;7.60;82.10
612;DHT22;293;53.888;11.464;2023-04-04T13:18:17;7.60;82.90
612;DHT22;293;53.888;11.464;2023-04-04T13:20:45;7.50;82.50
612;DHT22;293;53.888;11.464;2023-04-04T13:23:13;7.40;83.90
612;DHT22;293;53.888;11.464;2023-04-04T13:25:41;7.30;83.90
612;DHT22;293;53.888;11.464;2023-04-04T13:28:09;7.30;84.00
612;DHT22;293;53.888;11.464;2023-04-04T13:30:37;7.40;84.60
612;DHT22;293;53.888;11.464;2023-04-04T13:33:08;7.40;84.90
612;DHT22;293;53.888;11.464;2023-04-04T13:35:35;7.50;84.70
612;DHT22;293;53.888;11.464;2023-04-04T13:38:01;7.70;83.60
612;DHT22;293;53.888;11.464;2023-04-04T13:40:28;7.70;83.00
612;DHT22;293;53.888;11.464;2023-04-04T13:42:55;7.70;81.80
612;DHT22;293;53.888;11.464;2023-04-04T13:45:24;7.90;81.90
612;DHT22;293;53.888;11.464;2023-04-04T13:47:50;8.00;83.50
612;DHT22;293;53.888;11.464;2023-04-04T13:50:17;8.00;83.70
612;DHT22;293;53.888;11.464;2023-04-04T13:52:44;7.90;83.90
612;DHT22;293;53.888;11.464;2023-04-04T13:55:12;7.90;84.20
612;DHT22;293;53.888;11.464;2023-04-04T13:57:39;8.00;84.70
612;DHT22;293;53.888;11.464;2023-04-04T14:00:07;8.10;85.00
612;DHT22;293;53.888;11.464;2023-04-04T14:02:36;8.00;84.40
612;DHT22;293;53.888;11.464;2023-04-04T14:05:03;8.00;84.30
612;DHT22;293;53.888;11.464;2023-04-04T14:07:30;8.00;84.00
612;DHT22;293;53.888;11.464;2023-04-04T14:09:57;8.00;84.10
612;DHT22;293;53.888;11.464;2023-04-04T14:12:23;8.00;82.20
612;DHT22;293;53.888;11.464;2023-04-04T14:14:50;7.90;82.50
612;DHT22;293;53.888;11.464;2023-04-04T14:17:17;7.90;81.10
612;DHT22;293;53.888;11.464;2023-04-04T14:19:45;7.90;81.20
612;DHT22;293;53.888;11.464;2023-04-04T14:22:12;7.80;80.70
612;DHT22;293;53.888;11.464;2023-04-04T14:24:39;7.80;81.30
612;DHT22;293;53.888;11.464;2023-04-04T14:27:06;7.80;81.80
612;DHT22;293;53.888;11.464;2023-04-04T14:29:33;7.80;82.50
612;DHT22;293;53.888;11.464;2023-04-04T14:32:00;7.80;83.00
612;DHT22;293;53.888;11.464;2023-04-04T14:34:26;7.80;80.10
612;DHT22;293;53.888;11.464;2023-04-04T14:36:55;7.90;77.30
612;DHT22;293;53.888;11.464;2023-04-04T14:39:22;7.90;76.40
612;DHT22;293;53.888;11.464;2023-04-04T14:41:48;7.90;76.60
612;DHT22;293;53.888;11.464;2023-04-04T14:44:16;7.70;79.20
612;DHT22;293;53.888;11.464;2023-04-04T14:46:43;7.70;78.70
612;DHT22;293;53.888;11.464;2023-04-04T14:49:09;7.70;78.60
612;DHT22;293;53.888;11.464;2023-04-04T14:51:36;7.60;81.50
612;DHT22;293;53.888;11.464;2023-04-04T14:54:05;7.60;82.30
612;DHT22;293;53.888;11.464;2023-04-04T14:56:31;7.70;83.30
612;DHT22;293;53.888;11.464;2023-04-04T14:58:58;7.70;85.00
612;DHT22;293;53.888;11.464;2023-04-04T15:01:26;7.70;85.10
612;DHT22;293;53.888;11.464;2023-04-04T15:03:54;7.60;85.70
612;DHT22;293;53.888;11.464;2023-04-04T15:06:21;7.60;85.70
612;DHT22;293;53.888;11.464;2023-04-04T15:08:48;7.70;84.70
612;DHT22;293;53.888;11.464;2023-04-04T15:11:16;7.80;86.00
612;DHT22;293;53.888;11.464;2023-04-04T15:13:43;7.80;86.20
612;DHT22;293;53.888;11.464;2023-04-04T15:16:10;7.80;86.90
612;DHT22;293;53.888;11.464;2023-04-04T15:18:37;7.90;85.90
612;DHT22;293;53.888;11.464;2023-04-04T15:21:04;7.90;85.10
612;DHT22;293;53.888;11.464;2023-04-04T15:23:31;7.90;82.20
612;DHT22;293;53.888;11.464;2023-04-04T15:25:58;7.90;82.70
612;DHT22;293;53.888;11.464;2023-04-04T15:28:26;7.80;82.20
612;DHT22;293;53.888;11.464;2023-04-04T15:30:54;7.80;82.10
612;DHT22;293;53.888;11.464;2023-04-04T15:33:21;7.70;81.60
612;DHT22;293;53.888;11.464;2023-04-04T15:35:47;7.70;80.90
612;DHT22;293;53.888;11.464;2023-04-04T15:38:14;7.60;80.50
612;DHT22;293;53.888;11.464;2023-04-04T15:40:41;7.60;81.00
612;DHT22;293;53.888;11.464;2023-04-04T15:43:08;7.60;82.10
612;DHT22;293;53.888;11.464;2023-04-04T15:45:36;7.50;80.10
612;DHT22;293;53.888;11.464;2023-04-04T15:48:04;7.50;80.90
612;DHT22;293;53.888;11.464;2023-04-04T15:50:31;7.40;79.20
612;DHT22;293;53.888;11.464;2023-04-04T15:52:57;7.40;79.50
612;DHT22;293;53.888;11.464;2023-04-04T15:55:25;7.30;79.10
612;DHT22;293;53.888;11.464;2023-04-04T15:57:52;7.30;78.70
612;DHT22;293;53.888;11.464;2023-04-04T16:00:19;7.20;78.80
612;DHT22;293;53.888;11.464;2023-04-04T16:02:48;7.20;78.40
612;DHT22;293;53.888;11.464;2023-04-04T16:05:15;7.20;78.90
612;DHT22;293;53.888;11.464;2023-04-04T16:07:41;7.20;77.90
612;DHT22;293;53.888;11.464;2023-04-04T16:10:09;7.20;77.00
612;DHT22;293;53.888;11.464;2023-04-04T16:12:36;7.10;77.60
612;DHT22;293;53.888;11.464;2023-04-04T16:15:04;7.10;78.10
612;DHT22;293;53.888;11.464;2023-04-04T16:17:31;7.10;77.60
612;DHT22;293;53.888;11.464;2023-04-04T16:19:59;7.20;77.90
612;DHT22;293;53.888;11.464;2023-04-04T16:22:26;7.10;77.50
612;DHT22;293;53.888;11.464;2023-04-04T16:24:53;7.10;78.00
612;DHT22;293;53.888;11.464;2023-04-04T16:27:20;7.10;77.80
612;DHT22;293;53.888;11.464;2023-04-04T16:29:47;7.00;78.20
612;DHT22;293;53.888;11.464;2023-04-04T16:32:14;7.00;79.10
612;DHT22;293;53.888;11.464;2023-04-04T16:34:41;6.90;77.90
612;DHT22;293;53.888;11.464;2023-04-04T16:37:09;6.90;78.90
612;DHT22;293;53.888;11.464;2023-04-04T16:39:37;6.90;79.30